sensor_id;sensor_type;location;lat;lon;timestamp;P1;durP1;ratioP1;P2;durP2;ratioP2
20734;SDS011;10528;52.124;5.196;2023-04-12T00:02:18;8.55;;;1.88;;
20734;SDS011;10528;52.124;5.196;2023-04-12T00:04:46;6.50;;;1.95;;
20734;SDS011;10528;52.124;5.196;2023-04-12T00:07:21;5.95;;;1.85;;
20734;SDS011;10528;52.124;5.196;2023-04-12T00:09:49;6.32;;;1.90;;
20734;SDS011;10528;52.124;5.196;2023-04-12T00:12:17;6.85;;;1.98;;
20734;SDS011;10528;52.124;5.196;2023-04-12T00:14:44;6.18;;;1.70;;
20734;SDS011;10528;52.124;5.196;2023-04-12T00:17:12;6.45;;;2.13;;
20734;SDS011;10528;52.124;5.196;2023-04-12T00:19:38;5.68;;;1.73;;
20734;SDS011;10528;52.124;5.196;2023-04-12T00:22:07;5.80;;;1.55;;
20734;SDS011;10528;52.124;5.196;2023-04-12T00:24:36;4.72;;;1.63;;
20734;SDS011;10528;52.124;5.196;2023-04-12T00:27:07;7.70;;;1.50;;
20734;SDS011;10528;52.124;5.196;2023-04-12T00:29:34;2.05;;;1.02;;
20734;SDS011;10528;52.124;5.196;2023-04-12T00:32:01;4.68;;;1.45;;
20734;SDS011;10528;52.124;5.196;2023-04-12T00:34:30;4.93;;;1.05;;
20734;SDS011;10528;52.124;5.196;2023-04-12T00:36:57;3.92;;;1.10;;
20734;SDS011;10528;52.124;5.196;2023-04-12T00:39:25;4.10;;;1.23;;
20734;SDS011;10528;52.124;5.196;2023-04-12T00:41:55;3.40;;;1.20;;
20734;SDS011;10528;52.124;5.196;2023-04-12T00:44:22;4.65;;;1.30;;
20734;SDS011;10528;52.124;5.196;2023-04-12T00:46:49;3.50;;;1.00;;
20734;SDS011;10528;52.124;5.196;2023-04-12T00:49:17;5.63;;;1.23;;
20734;SDS011;10528;52.124;5.196;2023-04-12T00:51:44;4.20;;;1.05;;
20734;SDS011;10528;52.124;5.196;2023-04-12T00:54:11;4.00;;;1.08;;
20734;SDS011;10528;52.124;5.196;2023-04-12T00:56:39;4.15;;;1.50;;
20734;SDS011;10528;52.124;5.196;2023-04-12T00:59:06;2.72;;;1.45;;
20734;SDS011;10528;52.124;5.196;2023-04-12T01:01:33;5.10;;;1.35;;
20734;SDS011;10528;52.124;5.196;2023-04-12T01:04:00;4.40;;;1.02;;
20734;SDS011;10528;52.124;5.196;2023-04-12T01:06:40;2.90;;;1.20;;
20734;SDS011;10528;52.124;5.196;2023-04-12T01:15:16;3.10;;;1.02;;
20734;SDS011;10528;52.124;5.196;2023-04-12T01:17:46;2.90;;;1.10;;
20734;SDS011;10528;52.124;5.196;2023-04-12T01:20:26;2.88;;;1.20;;
20734;SDS011;10528;52.124;5.196;2023-04-12T01:26:07;3.42;;;1.20;;
20734;SDS011;10528;52.124;5.196;2023-04-12T01:29:00;4.30;;;1.20;;
20734;SDS011;10528;52.124;5.196;2023-04-12T01:31:34;5.40;;;1.40;;
20734;SDS011;10528;52.124;5.196;2023-04-12T01:34:06;4.78;;;2.13;;
20734;SDS011;10528;52.124;5.196;2023-04-12T01:36:37;3.78;;;1.25;;
20734;SDS011;10528;52.124;5.196;2023-04-12T01:39:05;4.15;;;1.42;;
20734;SDS011;10528;52.124;5.196;2023-04-12T01:41:33;4.57;;;1.20;;
20734;SDS011;10528;52.124;5.196;2023-04-12T01:44:07;5.45;;;1.50;;
20734;SDS011;10528;52.124;5.196;2023-04-12T01:46:33;5.53;;;1.20;;
20734;SDS011;10528;52.124;5.196;2023-04-12T01:49:02;3.08;;;1.20;;
20734;SDS011;10528;52.124;5.196;2023-04-12T01:54:13;3.10;;;1.17;;
20734;SDS011;10528;52.124;5.196;2023-04-12T01:56:49;4.00;;;1.17;;
20734;SDS011;10528;52.124;5.196;2023-04-12T01:59:25;4.20;;;1.65;;
20734;SDS011;10528;52.124;5.196;2023-04-12T02:01:57;2.90;;;1.17;;
20734;SDS011;10528;52.124;5.196;2023-04-12T02:04:24;3.15;;;1.20;;
20734;SDS011;10528;52.124;5.196;2023-04-12T02:06:53;2.70;;;1.10;;
20734;SDS011;10528;52.124;5.196;2023-04-12T02:09:21;4.05;;;1.40;;
20734;SDS011;10528;52.124;5.196;2023-04-12T02:11:48;5.60;;;1.35;;
20734;SDS011;10528;52.124;5.196;2023-04-12T02:14:15;4.05;;;1.05;;
20734;SDS011;10528;52.124;5.196;2023-04-12T02:16:43;4.20;;;1.30;;
20734;SDS011;10528;52.124;5.196;2023-04-12T02:19:11;4.10;;;1.38;;
20734;SDS011;10528;52.124;5.196;2023-04-12T02:21:40;4.07;;;0.90;;
20734;SDS011;10528;52.124;5.196;2023-04-12T02:24:09;4.45;;;1.10;;
20734;SDS011;10528;52.124;5.196;2023-04-12T02:26:37;3.42;;;1.02;;
20734;SDS011;10528;52.124;5.196;2023-04-12T02:29:07;5.20;;;1.30;;
20734;SDS011;10528;52.124;5.196;2023-04-12T02:31:36;3.97;;;1.20;;
20734;SDS011;10528;52.124;5.196;2023-04-12T02:34:06;4.47;;;1.35;;
20734;SDS011;10528;52.124;5.196;2023-04-12T02:36:36;6.05;;;1.35;;
20734;SDS011;10528;52.124;5.196;2023-04-12T02:39:03;3.85;;;1.20;;
20734;SDS011;10528;52.124;5.196;2023-04-12T02:41:32;6.53;;;1.20;;
20734;SDS011;10528;52.124;5.196;2023-04-12T02:44:00;5.95;;;1.08;;
20734;SDS011;10528;52.124;5.196;2023-04-12T02:46:27;3.95;;;1.20;;
20734;SDS011;10528;52.124;5.196;2023-04-12T02:48:56;3.30;;;1.10;;
20734;SDS011;10528;52.124;5.196;2023-04-12T02:51:31;3.22;;;1.30;;
20734;SDS011;10528;52.124;5.196;2023-04-12T02:53:59;3.67;;;1.27;;
20734;SDS011;10528;52.124;5.196;2023-04-12T02:56:35;3.90;;;1.30;;
20734;SDS011;10528;52.124;5.196;2023-04-12T02:59:16;5.32;;;1.20;;
20734;SDS011;10528;52.124;5.196;2023-04-12T03:02:02;4.57;;;1.42;;
20734;SDS011;10528;52.124;5.196;2023-04-12T03:04:31;4.15;;;1.27;;
20734;SDS011;10528;52.124;5.196;2023-04-12T03:06:59;4.65;;;1.20;;
20734;SDS011;10528;52.124;5.196;2023-04-12T03:09:32;4.90;;;1.30;;
20734;SDS011;10528;52.124;5.196;2023-04-12T03:12:01;5.15;;;1.60;;
20734;SDS011;10528;52.124;5.196;2023-04-12T03:14:32;9.35;;;1.92;;
20734;SDS011;10528;52.124;5.196;2023-04-12T03:16:59;4.05;;;1.48;;
20734;SDS011;10528;52.124;5.196;2023-04-12T03:19:26;3.28;;;1.55;;
20734;SDS011;10528;52.124;5.196;2023-04-12T03:21:54;6.57;;;1.30;;
20734;SDS011;10528;52.124;5.196;2023-04-12T03:24:21;4.28;;;1.35;;
20734;SDS011;10528;52.124;5.196;2023-04-12T03:26:49;4.97;;;1.65;;
20734;SDS011;10528;52.124;5.196;2023-04-12T03:29:21;5.03;;;1.40;;
20734;SDS011;10528;52.124;5.196;2023-04-12T03:31:50;5.20;;;1.50;;
20734;SDS011;10528;52.124;5.196;2023-04-12T03:34:17;3.42;;;1.20;;
20734;SDS011;10528;52.124;5.196;2023-04-12T03:36:49;5.03;;;1.40;;
20734;SDS011;10528;52.124;5.196;2023-04-12T03:39:39;2.92;;;1.30;;
20734;SDS011;10528;52.124;5.196;2023-04-12T03:42:08;4.75;;;1.50;;
20734;SDS011;10528;52.124;5.196;2023-04-12T03:44:51;6.55;;;1.15;;
20734;SDS011;10528;52.124;5.196;2023-04-12T03:47:20;3.60;;;1.30;;
20734;SDS011;10528;52.124;5.196;2023-04-12T03:49:47;4.18;;;1.20;;
20734;SDS011;10528;52.124;5.196;2023-04-12T03:52:35;4.43;;;1.50;;
20734;SDS011;10528;52.124;5.196;2023-04-12T03:55:05;2.92;;;1.20;;
20734;SDS011;10528;52.124;5.196;2023-04-12T03:57:34;4.25;;;1.95;;
20734;SDS011;10528;52.124;5.196;2023-04-12T04:00:02;4.30;;;1.05;;
20734;SDS011;10528;52.124;5.196;2023-04-12T04:02:43;2.55;;;1.17;;
20734;SDS011;10528;52.124;5.196;2023-04-12T04:05:14;4.32;;;1.35;;
20734;SDS011;10528;52.124;5.196;2023-04-12T04:07:43;4.68;;;1.40;;
20734;SDS011;10528;52.124;5.196;2023-04-12T04:10:10;7.05;;;1.52;;
20734;SDS011;10528;52.124;5.196;2023-04-12T04:12:39;5.22;;;1.95;;
20734;SDS011;10528;52.124;5.196;2023-04-12T04:15:09;2.70;;;1.27;;
20734;SDS011;10528;52.124;5.196;2023-04-12T04:17:36;2.20;;;1.10;;
20734;SDS011;10528;52.124;5.196;2023-04-12T04:20:04;4.25;;;1.50;;
20734;SDS011;10528;52.124;5.196;2023-04-12T04:22:35;4.55;;;1.70;;
20734;SDS011;10528;52.124;5.196;2023-04-12T04:25:03;2.92;;;1.10;;
20734;SDS011;10528;52.124;5.196;2023-04-12T04:27:35;4.25;;;1.63;;
20734;SDS011;10528;52.124;5.196;2023-04-12T04:30:05;3.58;;;1.13;;
20734;SDS011;10528;52.124;5.196;2023-04-12T04:32:35;4.57;;;1.20;;
20734;SDS011;10528;52.124;5.196;2023-04-12T04:35:03;2.00;;;1.10;;
20734;SDS011;10528;52.124;5.196;2023-04-12T04:37:42;4.13;;;1.70;;
20734;SDS011;10528;52.124;5.196;2023-04-12T04:40:11;4.82;;;1.25;;
20734;SDS011;10528;52.124;5.196;2023-04-12T04:42:39;2.95;;;1.10;;
20734;SDS011;10528;52.124;5.196;2023-04-12T04:45:08;3.75;;;1.10;;
20734;SDS011;10528;52.124;5.196;2023-04-12T04:47:42;3.47;;;1.13;;
20734;SDS011;10528;52.124;5.196;2023-04-12T04:50:09;3.92;;;1.33;;
20734;SDS011;10528;52.124;5.196;2023-04-12T04:52:37;4.78;;;1.55;;
20734;SDS011;10528;52.124;5.196;2023-04-12T04:55:08;2.67;;;1.40;;
20734;SDS011;10528;52.124;5.196;2023-04-12T04:57:39;2.00;;;0.98;;
20734;SDS011;10528;52.124;5.196;2023-04-12T05:00:06;6.05;;;1.35;;
20734;SDS011;10528;52.124;5.196;2023-04-12T05:02:41;3.47;;;1.40;;
20734;SDS011;10528;52.124;5.196;2023-04-12T05:05:12;3.05;;;1.23;;
20734;SDS011;10528;52.124;5.196;2023-04-12T05:07:40;1.98;;;1.15;;
20734;SDS011;10528;52.124;5.196;2023-04-12T05:10:09;2.45;;;1.15;;
20734;SDS011;10528;52.124;5.196;2023-04-12T05:12:39;3.67;;;1.25;;
20734;SDS011;10528;52.124;5.196;2023-04-12T05:15:06;3.63;;;1.25;;
20734;SDS011;10528;52.124;5.196;2023-04-12T05:17:39;1.80;;;1.10;;
20734;SDS011;10528;52.124;5.196;2023-04-12T05:20:06;1.92;;;0.98;;
20734;SDS011;10528;52.124;5.196;2023-04-12T05:22:37;3.47;;;1.20;;
20734;SDS011;10528;52.124;5.196;2023-04-12T05:25:04;3.88;;;1.60;;
20734;SDS011;10528;52.124;5.196;2023-04-12T05:27:37;2.58;;;1.08;;
20734;SDS011;10528;52.124;5.196;2023-04-12T05:30:05;2.20;;;1.02;;
20734;SDS011;10528;52.124;5.196;2023-04-12T05:32:34;3.35;;;0.90;;
20734;SDS011;10528;52.124;5.196;2023-04-12T05:35:01;3.10;;;1.50;;
20734;SDS011;10528;52.124;5.196;2023-04-12T05:37:29;2.63;;;1.33;;
20734;SDS011;10528;52.124;5.196;2023-04-12T05:39:55;1.95;;;1.17;;
20734;SDS011;10528;52.124;5.196;2023-04-12T05:42:22;3.05;;;1.13;;
20734;SDS011;10528;52.124;5.196;2023-04-12T05:44:49;4.03;;;1.40;;
20734;SDS011;10528;52.124;5.196;2023-04-12T05:47:19;3.40;;;1.40;;
20734;SDS011;10528;52.124;5.196;2023-04-12T05:49:47;2.78;;;1.40;;
20734;SDS011;10528;52.124;5.196;2023-04-12T05:52:14;1.67;;;1.40;;
20734;SDS011;10528;52.124;5.196;2023-04-12T05:54:41;2.83;;;1.50;;
20734;SDS011;10528;52.124;5.196;2023-04-12T05:57:13;1.90;;;1.20;;
20734;SDS011;10528;52.124;5.196;2023-04-12T05:59:41;3.25;;;1.65;;
20734;SDS011;10528;52.124;5.196;2023-04-12T06:02:08;2.75;;;1.58;;
20734;SDS011;10528;52.124;5.196;2023-04-12T06:04:35;3.92;;;1.77;;
20734;SDS011;10528;52.124;5.196;2023-04-12T06:07:17;3.53;;;1.95;;
20734;SDS011;10528;52.124;5.196;2023-04-12T06:09:44;6.00;;;1.92;;
20734;SDS011;10528;52.124;5.196;2023-04-12T06:12:12;4.03;;;1.75;;
20734;SDS011;10528;52.124;5.196;2023-04-12T06:14:39;5.18;;;2.17;;
20734;SDS011;10528;52.124;5.196;2023-04-12T06:17:06;2.72;;;1.60;;
20734;SDS011;10528;52.124;5.196;2023-04-12T06:19:33;4.28;;;1.63;;
20734;SDS011;10528;52.124;5.196;2023-04-12T06:22:00;2.95;;;1.70;;
20734;SDS011;10528;52.124;5.196;2023-04-12T06:24:29;3.80;;;2.00;;
20734;SDS011;10528;52.124;5.196;2023-04-12T06:26:56;4.15;;;2.05;;
20734;SDS011;10528;52.124;5.196;2023-04-12T06:29:24;3.97;;;1.95;;
20734;SDS011;10528;52.124;5.196;2023-04-12T06:31:51;5.18;;;2.85;;
20734;SDS011;10528;52.124;5.196;2023-04-12T06:34:18;2.78;;;1.73;;
20734;SDS011;10528;52.124;5.196;2023-04-12T06:36:45;4.43;;;2.00;;
20734;SDS011;10528;52.124;5.196;2023-04-12T06:39:13;3.47;;;2.15;;
20734;SDS011;10528;52.124;5.196;2023-04-12T06:41:41;3.63;;;1.90;;
20734;SDS011;10528;52.124;5.196;2023-04-12T06:44:17;4.00;;;2.40;;
20734;SDS011;10528;52.124;5.196;2023-04-12T06:46:44;5.25;;;2.42;;
20734;SDS011;10528;52.124;5.196;2023-04-12T06:49:11;7.45;;;2.95;;
20734;SDS011;10528;52.124;5.196;2023-04-12T06:51:38;4.07;;;2.42;;
20734;SDS011;10528;52.124;5.196;2023-04-12T06:54:05;6.18;;;2.60;;
20734;SDS011;10528;52.124;5.196;2023-04-12T06:56:32;7.30;;;2.83;;
20734;SDS011;10528;52.124;5.196;2023-04-12T06:58:59;7.93;;;3.00;;
20734;SDS011;10528;52.124;5.196;2023-04-12T07:01:26;5.15;;;2.67;;
20734;SDS011;10528;52.124;5.196;2023-04-12T07:03:53;5.75;;;3.10;;
20734;SDS011;10528;52.124;5.196;2023-04-12T07:06:20;5.10;;;3.13;;
20734;SDS011;10528;52.124;5.196;2023-04-12T07:08:51;4.20;;;2.97;;
20734;SDS011;10528;52.124;5.196;2023-04-12T07:11:18;7.55;;;3.28;;
20734;SDS011;10528;52.124;5.196;2023-04-12T07:13:48;7.40;;;3.20;;
20734;SDS011;10528;52.124;5.196;2023-04-12T07:16:16;7.45;;;3.83;;
20734;SDS011;10528;52.124;5.196;2023-04-12T07:18:43;8.07;;;4.30;;
20734;SDS011;10528;52.124;5.196;2023-04-12T07:21:10;9.80;;;4.10;;
20734;SDS011;10528;52.124;5.196;2023-04-12T07:23:42;8.52;;;3.83;;
20734;SDS011;10528;52.124;5.196;2023-04-12T07:26:10;8.70;;;3.35;;
20734;SDS011;10528;52.124;5.196;2023-04-12T07:28:36;13.00;;;3.80;;
20734;SDS011;10528;52.124;5.196;2023-04-12T07:31:04;6.65;;;3.67;;
20734;SDS011;10528;52.124;5.196;2023-04-12T07:33:32;7.60;;;3.58;;
20734;SDS011;10528;52.124;5.196;2023-04-12T07:36:01;7.75;;;3.55;;
20734;SDS011;10528;52.124;5.196;2023-04-12T07:38:29;9.15;;;3.50;;
20734;SDS011;10528;52.124;5.196;2023-04-12T07:40:56;10.05;;;4.20;;
20734;SDS011;10528;52.124;5.196;2023-04-12T07:43:23;9.38;;;3.50;;
20734;SDS011;10528;52.124;5.196;2023-04-12T07:45:50;8.45;;;3.33;;
20734;SDS011;10528;52.124;5.196;2023-04-12T07:48:20;8.10;;;3.10;;
20734;SDS011;10528;52.124;5.196;2023-04-12T07:50:47;10.07;;;3.22;;
20734;SDS011;10528;52.124;5.196;2023-04-12T07:53:17;9.50;;;3.40;;
20734;SDS011;10528;52.124;5.196;2023-04-12T07:55:51;10.63;;;3.15;;
20734;SDS011;10528;52.124;5.196;2023-04-12T07:58:20;10.85;;;3.75;;
20734;SDS011;10528;52.124;5.196;2023-04-12T08:00:49;13.40;;;3.70;;
20734;SDS011;10528;52.124;5.196;2023-04-12T08:03:17;13.18;;;3.55;;
20734;SDS011;10528;52.124;5.196;2023-04-12T08:05:44;14.13;;;2.95;;
20734;SDS011;10528;52.124;5.196;2023-04-12T08:08:14;14.00;;;3.63;;
20734;SDS011;10528;52.124;5.196;2023-04-12T08:10:41;14.10;;;3.20;;
20734;SDS011;10528;52.124;5.196;2023-04-12T08:13:08;12.93;;;2.67;;
20734;SDS011;10528;52.124;5.196;2023-04-12T08:15:35;17.52;;;3.90;;
20734;SDS011;10528;52.124;5.196;2023-04-12T08:18:02;12.15;;;2.72;;
20734;SDS011;10528;52.124;5.196;2023-04-12T08:20:30;9.38;;;2.80;;
20734;SDS011;10528;52.124;5.196;2023-04-12T08:22:58;18.67;;;3.55;;
20734;SDS011;10528;52.124;5.196;2023-04-12T08:25:24;15.10;;;3.10;;
20734;SDS011;10528;52.124;5.196;2023-04-12T08:27:52;15.65;;;3.38;;
20734;SDS011;10528;52.124;5.196;2023-04-12T08:30:18;13.00;;;2.92;;
20734;SDS011;10528;52.124;5.196;2023-04-12T08:32:52;12.57;;;3.40;;
20734;SDS011;10528;52.124;5.196;2023-04-12T08:35:19;13.30;;;3.75;;
20734;SDS011;10528;52.124;5.196;2023-04-12T08:37:47;13.25;;;3.33;;
20734;SDS011;10528;52.124;5.196;2023-04-12T08:40:15;14.80;;;3.65;;
20734;SDS011;10528;52.124;5.196;2023-04-12T08:42:42;13.73;;;3.13;;
20734;SDS011;10528;52.124;5.196;2023-04-12T08:45:09;16.20;;;3.08;;
20734;SDS011;10528;52.124;5.196;2023-04-12T08:47:38;14.90;;;3.22;;
20734;SDS011;10528;52.124;5.196;2023-04-12T08:50:09;15.57;;;3.05;;
20734;SDS011;10528;52.124;5.196;2023-04-12T08:52:39;14.68;;;3.00;;
20734;SDS011;10528;52.124;5.196;2023-04-12T08:55:08;15.48;;;2.88;;
20734;SDS011;10528;52.124;5.196;2023-04-12T08:57:35;12.00;;;3.28;;
20734;SDS011;10528;52.124;5.196;2023-04-12T09:00:07;14.25;;;2.72;;
20734;SDS011;10528;52.124;5.196;2023-04-12T09:02:36;14.55;;;2.75;;
20734;SDS011;10528;52.124;5.196;2023-04-12T09:05:04;16.30;;;3.22;;
20734;SDS011;10528;52.124;5.196;2023-04-12T09:07:32;16.80;;;2.75;;
20734;SDS011;10528;52.124;5.196;2023-04-12T09:10:00;15.63;;;2.97;;
20734;SDS011;10528;52.124;5.196;2023-04-12T09:12:27;10.90;;;2.58;;
20734;SDS011;10528;52.124;5.196;2023-04-12T09:15:13;16.08;;;3.20;;
20734;SDS011;10528;52.124;5.196;2023-04-12T09:17:42;14.35;;;2.60;;
20734;SDS011;10528;52.124;5.196;2023-04-12T09:22:43;11.25;;;2.58;;
20734;SDS011;10528;52.124;5.196;2023-04-12T09:25:12;10.13;;;2.30;;
20734;SDS011;10528;52.124;5.196;2023-04-12T09:27:44;13.85;;;2.50;;
20734;SDS011;10528;52.124;5.196;2023-04-12T09:30:19;16.10;;;2.83;;
20734;SDS011;10528;52.124;5.196;2023-04-12T09:32:46;11.45;;;2.08;;
20734;SDS011;10528;52.124;5.196;2023-04-12T09:35:14;9.73;;;2.00;;
20734;SDS011;10528;52.124;5.196;2023-04-12T09:37:41;12.70;;;2.42;;
20734;SDS011;10528;52.124;5.196;2023-04-12T09:40:08;16.25;;;2.40;;
20734;SDS011;10528;52.124;5.196;2023-04-12T09:42:49;11.57;;;2.63;;
20734;SDS011;10528;52.124;5.196;2023-04-12T09:45:23;7.40;;;1.80;;
20734;SDS011;10528;52.124;5.196;2023-04-12T09:47:53;13.85;;;2.45;;
20734;SDS011;10528;52.124;5.196;2023-04-12T09:50:25;13.20;;;2.67;;
20734;SDS011;10528;52.124;5.196;2023-04-12T09:52:54;14.07;;;2.40;;
20734;SDS011;10528;52.124;5.196;2023-04-12T09:55:23;13.07;;;2.58;;
20734;SDS011;10528;52.124;5.196;2023-04-12T09:57:54;12.27;;;2.50;;
20734;SDS011;10528;52.124;5.196;2023-04-12T10:00:22;17.17;;;2.63;;
20734;SDS011;10528;52.124;5.196;2023-04-12T10:02:52;12.65;;;2.58;;
20734;SDS011;10528;52.124;5.196;2023-04-12T10:05:22;10.15;;;2.10;;
20734;SDS011;10528;52.124;5.196;2023-04-12T10:07:52;13.48;;;2.45;;
20734;SDS011;10528;52.124;5.196;2023-04-12T10:10:21;14.90;;;2.60;;
20734;SDS011;10528;52.124;5.196;2023-04-12T10:12:48;14.55;;;2.80;;
20734;SDS011;10528;52.124;5.196;2023-04-12T10:15:16;9.23;;;1.70;;
20734;SDS011;10528;52.124;5.196;2023-04-12T10:17:51;12.80;;;2.85;;
20734;SDS011;10528;52.124;5.196;2023-04-12T10:20:20;11.40;;;2.65;;
20734;SDS011;10528;52.124;5.196;2023-04-12T10:22:52;13.77;;;2.80;;
20734;SDS011;10528;52.124;5.196;2023-04-12T10:25:22;10.48;;;2.28;;
20734;SDS011;10528;52.124;5.196;2023-04-12T10:27:52;18.00;;;3.03;;
20734;SDS011;10528;52.124;5.196;2023-04-12T10:35:50;15.38;;;2.63;;
20734;SDS011;10528;52.124;5.196;2023-04-12T10:38:20;12.80;;;2.30;;
20734;SDS011;10528;52.124;5.196;2023-04-12T10:41:18;13.35;;;2.95;;
20734;SDS011;10528;52.124;5.196;2023-04-12T10:43:50;16.08;;;2.75;;
20734;SDS011;10528;52.124;5.196;2023-04-12T10:49:14;14.52;;;3.22;;
20734;SDS011;10528;52.124;5.196;2023-04-12T10:54:35;19.92;;;2.97;;
20734;SDS011;10528;52.124;5.196;2023-04-12T10:57:05;19.83;;;3.03;;
20734;SDS011;10528;52.124;5.196;2023-04-12T11:02:17;10.98;;;2.60;;
20734;SDS011;10528;52.124;5.196;2023-04-12T11:05:09;13.80;;;2.67;;
20734;SDS011;10528;52.124;5.196;2023-04-12T11:07:52;13.68;;;2.67;;
20734;SDS011;10528;52.124;5.196;2023-04-12T11:10:45;15.38;;;3.20;;
20734;SDS011;10528;52.124;5.196;2023-04-12T11:13:18;13.35;;;3.03;;
20734;SDS011;10528;52.124;5.196;2023-04-12T11:15:45;15.13;;;3.15;;
20734;SDS011;10528;52.124;5.196;2023-04-12T11:18:12;13.35;;;2.78;;
20734;SDS011;10528;52.124;5.196;2023-04-12T11:20:39;13.00;;;2.80;;
20734;SDS011;10528;52.124;5.196;2023-04-12T11:23:06;16.17;;;2.75;;
20734;SDS011;10528;52.124;5.196;2023-04-12T11:25:36;10.95;;;2.42;;
20734;SDS011;10528;52.124;5.196;2023-04-12T11:28:03;14.75;;;2.80;;
20734;SDS011;10528;52.124;5.196;2023-04-12T11:30:52;12.80;;;2.40;;
20734;SDS011;10528;52.124;5.196;2023-04-12T11:36:17;10.27;;;2.40;;
20734;SDS011;10528;52.124;5.196;2023-04-12T11:38:45;8.55;;;1.77;;
20734;SDS011;10528;52.124;5.196;2023-04-12T11:41:13;13.02;;;2.60;;
20734;SDS011;10528;52.124;5.196;2023-04-12T11:43:40;10.18;;;1.92;;
20734;SDS011;10528;52.124;5.196;2023-04-12T11:46:07;11.38;;;2.67;;
20734;SDS011;10528;52.124;5.196;2023-04-12T11:48:34;9.02;;;1.92;;
20734;SDS011;10528;52.124;5.196;2023-04-12T11:51:19;9.40;;;2.35;;
20734;SDS011;10528;52.124;5.196;2023-04-12T11:53:53;5.43;;;1.60;;
20734;SDS011;10528;52.124;5.196;2023-04-12T11:56:22;10.50;;;2.22;;
20734;SDS011;10528;52.124;5.196;2023-04-12T11:58:49;6.10;;;1.20;;
20734;SDS011;10528;52.124;5.196;2023-04-12T12:01:17;8.20;;;1.80;;
20734;SDS011;10528;52.124;5.196;2023-04-12T12:03:46;12.75;;;1.98;;
20734;SDS011;10528;52.124;5.196;2023-04-12T12:06:15;6.82;;;1.50;;
20734;SDS011;10528;52.124;5.196;2023-04-12T12:08:43;8.15;;;1.75;;
20734;SDS011;10528;52.124;5.196;2023-04-12T12:11:11;5.68;;;1.00;;
20734;SDS011;10528;52.124;5.196;2023-04-12T12:13:44;6.97;;;1.15;;
20734;SDS011;10528;52.124;5.196;2023-04-12T12:16:26;4.10;;;1.02;;
20734;SDS011;10528;52.124;5.196;2023-04-12T12:18:55;6.22;;;1.60;;
20734;SDS011;10528;52.124;5.196;2023-04-12T12:21:23;4.50;;;1.00;;
20734;SDS011;10528;52.124;5.196;2023-04-12T12:23:52;7.45;;;1.15;;
20734;SDS011;10528;52.124;5.196;2023-04-12T12:26:20;4.55;;;0.95;;
20734;SDS011;10528;52.124;5.196;2023-04-12T12:28:50;5.57;;;1.00;;
20734;SDS011;10528;52.124;5.196;2023-04-12T12:31:23;9.15;;;1.30;;
20734;SDS011;10528;52.124;5.196;2023-04-12T12:33:53;5.57;;;0.98;;
20734;SDS011;10528;52.124;5.196;2023-04-12T12:36:31;7.88;;;1.55;;
20734;SDS011;10528;52.124;5.196;2023-04-12T12:39:05;8.70;;;1.30;;
20734;SDS011;10528;52.124;5.196;2023-04-12T12:41:37;9.68;;;1.23;;
20734;SDS011;10528;52.124;5.196;2023-04-12T12:44:05;7.10;;;1.25;;
20734;SDS011;10528;52.124;5.196;2023-04-12T12:46:33;4.95;;;1.25;;
20734;SDS011;10528;52.124;5.196;2023-04-12T12:49:03;4.63;;;0.95;;
20734;SDS011;10528;52.124;5.196;2023-04-12T12:51:30;4.50;;;0.95;;
20734;SDS011;10528;52.124;5.196;2023-04-12T12:53:57;6.63;;;1.13;;
20734;SDS011;10528;52.124;5.196;2023-04-12T12:56:24;7.50;;;1.70;;
20734;SDS011;10528;52.124;5.196;2023-04-12T12:58:51;5.25;;;1.25;;
20734;SDS011;10528;52.124;5.196;2023-04-12T13:01:18;4.05;;;1.05;;
20734;SDS011;10528;52.124;5.196;2023-04-12T13:03:45;4.60;;;0.77;;
20734;SDS011;10528;52.124;5.196;2023-04-12T13:06:12;5.35;;;1.10;;
20734;SDS011;10528;52.124;5.196;2023-04-12T13:08:39;6.03;;;1.00;;
20734;SDS011;10528;52.124;5.196;2023-04-12T13:11:06;9.63;;;1.23;;
20734;SDS011;10528;52.124;5.196;2023-04-12T13:13:33;4.93;;;0.77;;
20734;SDS011;10528;52.124;5.196;2023-04-12T13:15:59;4.78;;;0.90;;
20734;SDS011;10528;52.124;5.196;2023-04-12T13:18:26;5.13;;;1.23;;
20734;SDS011;10528;52.124;5.196;2023-04-12T13:20:53;4.43;;;0.90;;
20734;SDS011;10528;52.124;5.196;2023-04-12T13:23:20;5.18;;;0.93;;
20734;SDS011;10528;52.124;5.196;2023-04-12T13:25:47;3.60;;;0.80;;
20734;SDS011;10528;52.124;5.196;2023-04-12T13:28:14;5.97;;;1.10;;
20734;SDS011;10528;52.124;5.196;2023-04-12T13:30:42;4.53;;;1.20;;
20734;SDS011;10528;52.124;5.196;2023-04-12T13:33:08;4.75;;;1.15;;
20734;SDS011;10528;52.124;5.196;2023-04-12T13:35:36;4.88;;;1.13;;
20734;SDS011;10528;52.124;5.196;2023-04-12T13:38:03;7.65;;;1.23;;
20734;SDS011;10528;52.124;5.196;2023-04-12T13:40:30;8.50;;;1.30;;
20734;SDS011;10528;52.124;5.196;2023-04-12T13:42:57;5.38;;;1.20;;
20734;SDS011;10528;52.124;5.196;2023-04-12T13:45:24;4.38;;;1.15;;
20734;SDS011;10528;52.124;5.196;2023-04-12T13:47:52;3.72;;;0.75;;
20734;SDS011;10528;52.124;5.196;2023-04-12T13:50:19;3.67;;;0.90;;
20734;SDS011;10528;52.124;5.196;2023-04-12T13:52:46;3.15;;;0.70;;
20734;SDS011;10528;52.124;5.196;2023-04-12T13:55:12;3.65;;;0.80;;
20734;SDS011;10528;52.124;5.196;2023-04-12T13:57:39;4.05;;;0.80;;
20734;SDS011;10528;52.124;5.196;2023-04-12T14:00:06;4.72;;;0.90;;
20734;SDS011;10528;52.124;5.196;2023-04-12T14:02:34;6.97;;;1.38;;
20734;SDS011;10528;52.124;5.196;2023-04-12T14:05:01;3.97;;;1.00;;
20734;SDS011;10528;52.124;5.196;2023-04-12T14:07:29;3.70;;;1.00;;
20734;SDS011;10528;52.124;5.196;2023-04-12T14:09:56;3.53;;;1.00;;
20734;SDS011;10528;52.124;5.196;2023-04-12T14:12:23;4.88;;;0.80;;
20734;SDS011;10528;52.124;5.196;2023-04-12T14:14:50;3.03;;;0.60;;
20734;SDS011;10528;52.124;5.196;2023-04-12T14:17:16;4.25;;;1.00;;
20734;SDS011;10528;52.124;5.196;2023-04-12T14:19:43;3.95;;;0.75;;
20734;SDS011;10528;52.124;5.196;2023-04-12T14:22:10;4.57;;;0.88;;
20734;SDS011;10528;52.124;5.196;2023-04-12T14:24:37;3.67;;;1.25;;
20734;SDS011;10528;52.124;5.196;2023-04-12T14:27:05;2.53;;;0.70;;
20734;SDS011;10528;52.124;5.196;2023-04-12T14:29:32;6.22;;;0.90;;
20734;SDS011;10528;52.124;5.196;2023-04-12T14:31:59;3.92;;;0.70;;
20734;SDS011;10528;52.124;5.196;2023-04-12T14:34:26;6.45;;;0.93;;
20734;SDS011;10528;52.124;5.196;2023-04-12T14:36:53;3.97;;;1.10;;
20734;SDS011;10528;52.124;5.196;2023-04-12T14:39:21;4.10;;;0.90;;
20734;SDS011;10528;52.124;5.196;2023-04-12T14:41:49;3.00;;;0.68;;
20734;SDS011;10528;52.124;5.196;2023-04-12T14:44:16;3.65;;;0.80;;
20734;SDS011;10528;52.124;5.196;2023-04-12T14:46:45;5.60;;;1.00;;
20734;SDS011;10528;52.124;5.196;2023-04-12T14:49:12;4.78;;;0.80;;
20734;SDS011;10528;52.124;5.196;2023-04-12T14:51:39;2.88;;;0.73;;
20734;SDS011;10528;52.124;5.196;2023-04-12T14:54:06;2.78;;;1.15;;
20734;SDS011;10528;52.124;5.196;2023-04-12T14:56:33;2.85;;;1.00;;
20734;SDS011;10528;52.124;5.196;2023-04-12T14:59:10;2.42;;;0.63;;
20734;SDS011;10528;52.124;5.196;2023-04-12T15:01:37;3.50;;;1.00;;
20734;SDS011;10528;52.124;5.196;2023-04-12T15:04:04;2.17;;;0.60;;
20734;SDS011;10528;52.124;5.196;2023-04-12T15:06:32;1.25;;;0.30;;
20734;SDS011;10528;52.124;5.196;2023-04-12T15:09:00;1.95;;;0.40;;
20734;SDS011;10528;52.124;5.196;2023-04-12T15:11:31;2.92;;;0.65;;
20734;SDS011;10528;52.124;5.196;2023-04-12T15:14:01;2.75;;;0.60;;
20734;SDS011;10528;52.124;5.196;2023-04-12T15:16:29;2.08;;;0.70;;
20734;SDS011;10528;52.124;5.196;2023-04-12T15:18:56;1.13;;;0.40;;
20734;SDS011;10528;52.124;5.196;2023-04-12T15:21:27;2.42;;;0.60;;
20734;SDS011;10528;52.124;5.196;2023-04-12T15:23:54;3.33;;;0.63;;
20734;SDS011;10528;52.124;5.196;2023-04-12T15:26:22;2.13;;;0.50;;
20734;SDS011;10528;52.124;5.196;2023-04-12T15:28:49;3.72;;;0.98;;
20734;SDS011;10528;52.124;5.196;2023-04-12T15:31:16;5.43;;;0.80;;